Eden, North Carolina
Current Conditions -  °F | °C
As of 6:55 AM on Sunday 21 Dec 2014 (Local Time) from KSIF Reporting Station
Overcast Overcast  
Wind Chill: 37°   Ceiling: 5500
Heat Index: 37°   Visibility: 7mi
Dew Point: 35°   Wind: 0mph
Humidity: 93%   Direction: NA
Pressure: 30.28"   Gusts: NA
Location:  36.5°N, 79.74°W
Report Text: KSIF 211155Z AUTO 00000KT 7SM SCT036 OVC055 03/02 A3028 RMK AO2 T00270017 10030 20025
Loading
Personal Weather Stations






























Interactive Weather Map New forecast layout! Learn more

10-Day Weather Forecast

Advertisements
Track Severe Weather on mobile